sensor_id;sensor_type;location;lat;lon;timestamp;pressure;altitude;pressure_sealevel;temperature;humidity
29379;BME280;16362;47.202;15.258;2023-05-19T00:02:01;96700.97;;;10.38;100.00
29379;BME280;16362;47.202;15.258;2023-05-19T00:04:31;96694.94;;;10.36;100.00
29379;BME280;16362;47.202;15.258;2023-05-19T00:06:59;96696.19;;;10.23;100.00
29379;BME280;16362;47.202;15.258;2023-05-19T00:09:27;96687.69;;;10.20;100.00
29379;BME280;16362;47.202;15.258;2023-05-19T00:11:54;96693.69;;;10.22;100.00
29379;BME280;16362;47.202;15.258;2023-05-19T00:14:22;96689.88;;;10.24;100.00
29379;BME280;16362;47.202;15.258;2023-05-19T00:16:49;96694.88;;;10.27;100.00
29379;BME280;16362;47.202;15.258;2023-05-19T00:19:16;96684.88;;;10.29;100.00
29379;BME280;16362;47.202;15.258;2023-05-19T00:21:44;96687.69;;;10.28;100.00
29379;BME280;16362;47.202;15.258;2023-05-19T00:24:11;96679.22;;;10.24;100.00
29379;BME280;16362;47.202;15.258;2023-05-19T00:26:38;96684.81;;;10.13;100.00
29379;BME280;16362;47.202;15.258;2023-05-19T00:29:05;96677.78;;;10.04;100.00
29379;BME280;16362;47.202;15.258;2023-05-19T00:31:32;96679.47;;;10.05;100.00
29379;BME280;16362;47.202;15.258;2023-05-19T00:34:00;96684.78;;;10.05;100.00
29379;BME280;16362;47.202;15.258;2023-05-19T00:36:27;96680.16;;;10.07;100.00
29379;BME280;16362;47.202;15.258;2023-05-19T00:38:54;96675.47;;;10.09;100.00
29379;BME280;16362;47.202;15.258;2023-05-19T00:41:21;96676.16;;;10.11;100.00
29379;BME280;16362;47.202;15.258;2023-05-19T00:43:49;96668.00;;;10.13;100.00
29379;BME280;16362;47.202;15.258;2023-05-19T00:46:17;96675.31;;;10.10;100.00
29379;BME280;16362;47.202;15.258;2023-05-19T00:48:45;96674.47;;;10.10;100.00
29379;BME280;16362;47.202;15.258;2023-05-19T00:51:12;96677.84;;;10.12;100.00
29379;BME280;16362;47.202;15.258;2023-05-19T00:53:43;96675.31;;;10.10;100.00
29379;BME280;16362;47.202;15.258;2023-05-19T00:56:15;96680.97;;;10.07;100.00
29379;BME280;16362;47.202;15.258;2023-05-19T00:58:42;96680.31;;;10.05;100.00
29379;BME280;16362;47.202;15.258;2023-05-19T01:05:13;96676.13;;;10.03;100.00
29379;BME280;16362;47.202;15.258;2023-05-19T01:07:40;96675.13;;;10.04;100.00
29379;BME280;16362;47.202;15.258;2023-05-19T01:10:08;96679.63;;;10.03;100.00
29379;BME280;16362;47.202;15.258;2023-05-19T01:12:35;96676.44;;;10.00;100.00
29379;BME280;16362;47.202;15.258;2023-05-19T01:15:03;96673.75;;;9.91;100.00
29379;BME280;16362;47.202;15.258;2023-05-19T01:17:45;96675.38;;;9.84;100.00
29379;BME280;16362;47.202;15.258;2023-05-19T01:20:48;96674.69;;;9.82;100.00
29379;BME280;16362;47.202;15.258;2023-05-19T01:23:32;96675.72;;;9.81;100.00
29379;BME280;16362;47.202;15.258;2023-05-19T01:29:16;96671.38;;;9.80;100.00
29379;BME280;16362;47.202;15.258;2023-05-19T01:31:54;96677.84;;;9.77;100.00
29379;BME280;16362;47.202;15.258;2023-05-19T01:34:25;96675.03;;;9.79;100.00
29379;BME280;16362;47.202;15.258;2023-05-19T01:36:54;96674.03;;;9.80;100.00
29379;BME280;16362;47.202;15.258;2023-05-19T01:39:22;96668.00;;;9.78;100.00
29379;BME280;16362;47.202;15.258;2023-05-19T01:41:49;96672.31;;;9.71;100.00
29379;BME280;16362;47.202;15.258;2023-05-19T01:44:18;96669.97;;;9.68;100.00
29379;BME280;16362;47.202;15.258;2023-05-19T01:46:45;96670.47;;;9.71;100.00
29379;BME280;16362;47.202;15.258;2023-05-19T01:49:13;96663.34;;;9.72;100.00
29379;BME280;16362;47.202;15.258;2023-05-19T01:51:40;96671.00;;;9.75;100.00
29379;BME280;16362;47.202;15.258;2023-05-19T01:54:07;96667.34;;;9.76;100.00
29379;BME280;16362;47.202;15.258;2023-05-19T01:56:57;96668.19;;;9.76;100.00
29379;BME280;16362;47.202;15.258;2023-05-19T02:03:08;96670.34;;;9.73;100.00
29379;BME280;16362;47.202;15.258;2023-05-19T02:05:44;96669.28;;;9.66;100.00
29379;BME280;16362;47.202;15.258;2023-05-19T02:10:50;96671.75;;;9.59;100.00
29379;BME280;16362;47.202;15.258;2023-05-19T02:13:23;96665.44;;;9.60;100.00
29379;BME280;16362;47.202;15.258;2023-05-19T02:15:54;96661.09;;;9.59;100.00
29379;BME280;16362;47.202;15.258;2023-05-19T02:18:23;96662.78;;;9.60;100.00
29379;BME280;16362;47.202;15.258;2023-05-19T02:20:51;96659.56;;;9.56;100.00
29379;BME280;16362;47.202;15.258;2023-05-19T02:23:17;96657.88;;;9.47;100.00
29379;BME280;16362;47.202;15.258;2023-05-19T02:25:44;96665.03;;;9.47;100.00
29379;BME280;16362;47.202;15.258;2023-05-19T02:28:11;96658.56;;;9.49;100.00
29379;BME280;16362;47.202;15.258;2023-05-19T02:30:38;96657.56;;;9.50;100.00
29379;BME280;16362;47.202;15.258;2023-05-19T02:33:05;96657.41;;;9.52;100.00
29379;BME280;16362;47.202;15.258;2023-05-19T02:35:33;96655.06;;;9.49;100.00
29379;BME280;16362;47.202;15.258;2023-05-19T02:38:00;96664.81;;;9.40;100.00
29379;BME280;16362;47.202;15.258;2023-05-19T02:40:27;96657.47;;;9.34;100.00
29379;BME280;16362;47.202;15.258;2023-05-19T02:42:53;96656.31;;;9.36;100.00
29379;BME280;16362;47.202;15.258;2023-05-19T02:45:20;96657.81;;;9.39;100.00
29379;BME280;16362;47.202;15.258;2023-05-19T02:47:47;96652.19;;;9.42;100.00
29379;BME280;16362;47.202;15.258;2023-05-19T02:50:14;96648.38;;;9.44;100.00
29379;BME280;16362;47.202;15.258;2023-05-19T02:52:41;96652.84;;;9.44;100.00
29379;BME280;16362;47.202;15.258;2023-05-19T02:55:08;96651.88;;;9.45;100.00
29379;BME280;16362;47.202;15.258;2023-05-19T02:57:35;96651.19;;;9.43;100.00
29379;BME280;16362;47.202;15.258;2023-05-19T03:00:02;96652.81;;;9.36;100.00
29379;BME280;16362;47.202;15.258;2023-05-19T03:02:29;96650.09;;;9.27;100.00
29379;BME280;16362;47.202;15.258;2023-05-19T03:04:56;96652.59;;;9.29;100.00
29379;BME280;16362;47.202;15.258;2023-05-19T03:07:23;96646.94;;;9.32;100.00
29379;BME280;16362;47.202;15.258;2023-05-19T03:09:50;96648.78;;;9.32;100.00
29379;BME280;16362;47.202;15.258;2023-05-19T03:12:18;96645.47;;;9.30;100.00
29379;BME280;16362;47.202;15.258;2023-05-19T03:14:45;96642.47;;;9.33;100.00
29379;BME280;16362;47.202;15.258;2023-05-19T03:17:11;96646.91;;;9.24;100.00
29379;BME280;16362;47.202;15.258;2023-05-19T03:19:38;96649.44;;;9.25;100.00
29379;BME280;16362;47.202;15.258;2023-05-19T03:22:05;96650.91;;;9.28;100.00
29379;BME280;16362;47.202;15.258;2023-05-19T03:24:32;96648.41;;;9.26;100.00
29379;BME280;16362;47.202;15.258;2023-05-19T03:26:59;96648.59;;;9.25;100.00
29379;BME280;16362;47.202;15.258;2023-05-19T03:29:26;96646.44;;;9.29;100.00
29379;BME280;16362;47.202;15.258;2023-05-19T03:31:53;96646.94;;;9.32;100.00
29379;BME280;16362;47.202;15.258;2023-05-19T03:34:19;96648.63;;;9.33;100.00
29379;BME280;16362;47.202;15.258;2023-05-19T03:36:47;96640.81;;;9.32;100.00
29379;BME280;16362;47.202;15.258;2023-05-19T03:39:15;96641.94;;;9.29;100.00
29379;BME280;16362;47.202;15.258;2023-05-19T03:41:42;96649.78;;;9.31;100.00
29379;BME280;16362;47.202;15.258;2023-05-19T03:44:09;96648.78;;;9.32;100.00
29379;BME280;16362;47.202;15.258;2023-05-19T03:46:36;96649.28;;;9.27;100.00
29379;BME280;16362;47.202;15.258;2023-05-19T03:49:03;96653.91;;;9.25;100.00
29379;BME280;16362;47.202;15.258;2023-05-19T03:51:30;96660.75;;;9.27;100.00
29379;BME280;16362;47.202;15.258;2023-05-19T03:53:56;96660.44;;;9.31;100.00
29379;BME280;16362;47.202;15.258;2023-05-19T03:56:23;96656.25;;;9.28;100.00
29379;BME280;16362;47.202;15.258;2023-05-19T03:58:52;96652.28;;;9.32;100.00
29379;BME280;16362;47.202;15.258;2023-05-19T04:01:20;96651.28;;;9.33;100.00
29379;BME280;16362;47.202;15.258;2023-05-19T04:03:47;96651.28;;;9.33;100.00
29379;BME280;16362;47.202;15.258;2023-05-19T04:06:13;96651.13;;;9.35;100.00
29379;BME280;16362;47.202;15.258;2023-05-19T04:08:40;96649.31;;;9.35;100.00
29379;BME280;16362;47.202;15.258;2023-05-19T04:11:09;96653.50;;;9.38;100.00
29379;BME280;16362;47.202;15.258;2023-05-19T04:13:36;96649.97;;;9.37;100.00
29379;BME280;16362;47.202;15.258;2023-05-19T04:16:03;96655.69;;;9.42;100.00
29379;BME280;16362;47.202;15.258;2023-05-19T04:18:30;96650.19;;;9.44;100.00
29379;BME280;16362;47.202;15.258;2023-05-19T04:20:57;96653.53;;;9.46;100.00
29379;BME280;16362;47.202;15.258;2023-05-19T04:23:24;96656.03;;;9.48;100.00
29379;BME280;16362;47.202;15.258;2023-05-19T04:25:51;96658.56;;;9.49;100.00
29379;BME280;16362;47.202;15.258;2023-05-19T04:28:19;96665.72;;;9.49;100.00
29379;BME280;16362;47.202;15.258;2023-05-19T04:30:47;96678.19;;;9.48;100.00
29379;BME280;16362;47.202;15.258;2023-05-19T04:33:14;96673.72;;;9.49;100.00
29379;BME280;16362;47.202;15.258;2023-05-19T04:35:41;96672.56;;;9.51;100.00
29379;BME280;16362;47.202;15.258;2023-05-19T04:38:09;96674.75;;;9.56;100.00
29379;BME280;16362;47.202;15.258;2023-05-19T04:40:37;96688.88;;;9.56;100.00
29379;BME280;16362;47.202;15.258;2023-05-19T04:43:05;96696.06;;;9.56;100.00
29379;BME280;16362;47.202;15.258;2023-05-19T04:45:32;96693.88;;;9.51;100.00
29379;BME280;16362;47.202;15.258;2023-05-19T04:47:59;96694.16;;;9.48;100.00
29379;BME280;16362;47.202;15.258;2023-05-19T04:50:27;96696.00;;;9.48;100.00
29379;BME280;16362;47.202;15.258;2023-05-19T04:52:56;96693.13;;;9.41;100.00
29379;BME280;16362;47.202;15.258;2023-05-19T04:55:24;96697.47;;;9.42;100.00
29379;BME280;16362;47.202;15.258;2023-05-19T04:57:51;96704.31;;;9.44;100.00
29379;BME280;16362;47.202;15.258;2023-05-19T05:00:19;96702.84;;;9.50;100.00
29379;BME280;16362;47.202;15.258;2023-05-19T05:02:46;96702.00;;;9.50;100.00
29379;BME280;16362;47.202;15.258;2023-05-19T05:05:14;96704.00;;;9.48;100.00
29379;BME280;16362;47.202;15.258;2023-05-19T05:07:41;96707.81;;;9.45;100.00
29379;BME280;16362;47.202;15.258;2023-05-19T05:10:09;96712.44;;;9.43;100.00
29379;BME280;16362;47.202;15.258;2023-05-19T05:12:36;96716.50;;;9.47;100.00
29379;BME280;16362;47.202;15.258;2023-05-19T05:15:04;96717.31;;;9.48;100.00
29379;BME280;16362;47.202;15.258;2023-05-19T05:17:33;96716.34;;;9.49;100.00
29379;BME280;16362;47.202;15.258;2023-05-19T05:20:01;96708.34;;;9.49;100.00
29379;BME280;16362;47.202;15.258;2023-05-19T05:22:30;96712.38;;;9.53;100.00
29379;BME280;16362;47.202;15.258;2023-05-19T05:24:57;96720.19;;;9.54;100.00
29379;BME280;16362;47.202;15.258;2023-05-19T05:27:24;96725.38;;;9.56;100.00
29379;BME280;16362;47.202;15.258;2023-05-19T05:29:51;96724.06;;;9.60;100.00
29379;BME280;16362;47.202;15.258;2023-05-19T05:32:18;96721.88;;;9.55;100.00
29379;BME280;16362;47.202;15.258;2023-05-19T05:34:45;96725.69;;;9.53;100.00
29379;BME280;16362;47.202;15.258;2023-05-19T05:37:12;96731.00;;;9.53;100.00
29379;BME280;16362;47.202;15.258;2023-05-19T05:39:40;96729.88;;;9.55;100.00
29379;BME280;16362;47.202;15.258;2023-05-19T05:42:07;96723.53;;;9.56;100.00
29379;BME280;16362;47.202;15.258;2023-05-19T05:44:37;96725.19;;;9.57;100.00
29379;BME280;16362;47.202;15.258;2023-05-19T05:47:05;96724.22;;;9.58;100.00
29379;BME280;16362;47.202;15.258;2023-05-19T05:49:32;96732.59;;;9.64;100.00
29379;BME280;16362;47.202;15.258;2023-05-19T05:52:02;96733.25;;;9.66;100.00
29379;BME280;16362;47.202;15.258;2023-05-19T05:54:32;96729.28;;;9.70;100.00
29379;BME280;16362;47.202;15.258;2023-05-19T05:56:59;96735.97;;;9.74;100.00
29379;BME280;16362;47.202;15.258;2023-05-19T05:59:28;96740.13;;;9.76;100.00
29379;BME280;16362;47.202;15.258;2023-05-19T06:01:54;96733.34;;;9.82;100.00
29379;BME280;16362;47.202;15.258;2023-05-19T06:04:21;96741.50;;;9.81;100.00
29379;BME280;16362;47.202;15.258;2023-05-19T06:06:48;96739.84;;;9.80;100.00
29379;BME280;16362;47.202;15.258;2023-05-19T06:09:15;96744.53;;;9.86;100.00
29379;BME280;16362;47.202;15.258;2023-05-19T06:11:42;96734.22;;;9.91;100.00
29379;BME280;16362;47.202;15.258;2023-05-19T06:14:09;96746.09;;;9.97;100.00
29379;BME280;16362;47.202;15.258;2023-05-19T06:16:36;96739.44;;;10.01;100.00
29379;BME280;16362;47.202;15.258;2023-05-19T06:19:03;96745.66;;;10.09;100.00
29379;BME280;16362;47.202;15.258;2023-05-19T06:21:30;96747.22;;;10.20;100.00
29379;BME280;16362;47.202;15.258;2023-05-19T06:23:56;96754.91;;;10.32;100.00
29379;BME280;16362;47.202;15.258;2023-05-19T06:26:23;96751.31;;;10.41;100.00
29379;BME280;16362;47.202;15.258;2023-05-19T06:28:50;96754.81;;;10.41;100.00
29379;BME280;16362;47.202;15.258;2023-05-19T06:31:17;96749.63;;;10.40;100.00
29379;BME280;16362;47.202;15.258;2023-05-19T06:33:44;96753.31;;;10.47;100.00
29379;BME280;16362;47.202;15.258;2023-05-19T06:36:11;96752.31;;;10.40;100.00
29379;BME280;16362;47.202;15.258;2023-05-19T06:38:39;96749.63;;;10.40;100.00
29379;BME280;16362;47.202;15.258;2023-05-19T06:41:06;96757.63;;;10.40;100.00
29379;BME280;16362;47.202;15.258;2023-05-19T06:43:33;96751.16;;;10.42;100.00
29379;BME280;16362;47.202;15.258;2023-05-19T06:46:00;96753.66;;;10.44;100.00
29379;BME280;16362;47.202;15.258;2023-05-19T06:48:27;96752.66;;;10.45;100.00
29379;BME280;16362;47.202;15.258;2023-05-19T06:50:59;96751.34;;;10.49;100.00
29379;BME280;16362;47.202;15.258;2023-05-19T06:53:26;96755.19;;;10.55;100.00
29379;BME280;16362;47.202;15.258;2023-05-19T06:55:53;96758.53;;;10.57;100.00
29379;BME280;16362;47.202;15.258;2023-05-19T06:58:26;96754.03;;;10.57;100.00
29379;BME280;16362;47.202;15.258;2023-05-19T07:00:53;96757.19;;;10.53;100.00
29379;BME280;16362;47.202;15.258;2023-05-19T07:03:20;96757.00;;;10.46;100.00
29379;BME280;16362;47.202;15.258;2023-05-19T07:05:46;96756.81;;;10.39;100.00
29379;BME280;16362;47.202;15.258;2023-05-19T07:08:13;96758.63;;;10.39;100.00
29379;BME280;16362;47.202;15.258;2023-05-19T07:10:40;96765.31;;;10.43;100.00
29379;BME280;16362;47.202;15.258;2023-05-19T07:13:07;96762.00;;;10.49;100.00
29379;BME280;16362;47.202;15.258;2023-05-19T07:15:34;96759.69;;;10.54;100.00
29379;BME280;16362;47.202;15.258;2023-05-19T07:18:01;96751.19;;;10.59;100.00
29379;BME280;16362;47.202;15.258;2023-05-19T07:20:28;96754.56;;;10.69;100.00
29379;BME280;16362;47.202;15.258;2023-05-19T07:22:54;96749.88;;;10.71;100.00
29379;BME280;16362;47.202;15.258;2023-05-19T07:25:21;96740.91;;;10.81;100.00
29379;BME280;16362;47.202;15.258;2023-05-19T07:27:48;96740.56;;;10.84;100.00
29379;BME280;16362;47.202;15.258;2023-05-19T07:30:15;96731.72;;;10.83;100.00
29379;BME280;16362;47.202;15.258;2023-05-19T07:32:42;96738.06;;;10.90;100.00
29379;BME280;16362;47.202;15.258;2023-05-19T07:35:09;96736.72;;;10.86;100.00
29379;BME280;16362;47.202;15.258;2023-05-19T07:37:36;96739.41;;;10.86;100.00
29379;BME280;16362;47.202;15.258;2023-05-19T07:40:04;96733.22;;;10.86;100.00
29379;BME280;16362;47.202;15.258;2023-05-19T07:42:33;96734.94;;;11.03;100.00
29379;BME280;16362;47.202;15.258;2023-05-19T07:45:00;96728.41;;;11.22;100.00
29379;BME280;16362;47.202;15.258;2023-05-19T07:47:29;96719.91;;;11.35;100.00
29379;BME280;16362;47.202;15.258;2023-05-19T07:49:56;96725.41;;;11.50;100.00
29379;BME280;16362;47.202;15.258;2023-05-19T07:52:23;96722.00;;;11.73;100.00
29379;BME280;16362;47.202;15.258;2023-05-19T07:54:50;96720.47;;;11.87;100.00
29379;BME280;16362;47.202;15.258;2023-05-19T07:57:16;96724.00;;;11.95;100.00
29379;BME280;16362;47.202;15.258;2023-05-19T07:59:44;96720.63;;;12.02;100.00
29379;BME280;16362;47.202;15.258;2023-05-19T08:02:11;96720.09;;;12.06;100.00
29379;BME280;16362;47.202;15.258;2023-05-19T08:04:38;96713.72;;;12.16;100.00
29379;BME280;16362;47.202;15.258;2023-05-19T08:07:05;96705.13;;;12.28;100.00
29379;BME280;16362;47.202;15.258;2023-05-19T08:09:32;96707.28;;;12.33;100.00
29379;BME280;16362;47.202;15.258;2023-05-19T08:11:58;96702.44;;;12.37;100.00
29379;BME280;16362;47.202;15.258;2023-05-19T08:14:27;96701.66;;;12.51;100.00
29379;BME280;16362;47.202;15.258;2023-05-19T08:16:53;96699.38;;;12.71;100.00
29379;BME280;16362;47.202;15.258;2023-05-19T08:19:20;96697.84;;;12.77;100.00
29379;BME280;16362;47.202;15.258;2023-05-19T08:21:47;96695.47;;;12.82;100.00
29379;BME280;16362;47.202;15.258;2023-05-19T08:24:15;96696.19;;;12.99;100.00
29379;BME280;16362;47.202;15.258;2023-05-19T08:26:42;96696.53;;;13.19;100.00
29379;BME280;16362;47.202;15.258;2023-05-19T08:29:09;96695.97;;;13.47;100.00
29379;BME280;16362;47.202;15.258;2023-05-19T08:31:36;96691.31;;;13.79;100.00
29379;BME280;16362;47.202;15.258;2023-05-19T08:34:03;96696.00;;;13.77;100.00
29379;BME280;16362;47.202;15.258;2023-05-19T08:36:30;96692.88;;;13.88;100.00
29379;BME280;16362;47.202;15.258;2023-05-19T08:38:57;96681.75;;;14.06;100.00
29379;BME280;16362;47.202;15.258;2023-05-19T08:41:23;96680.91;;;14.36;100.00
29379;BME280;16362;47.202;15.258;2023-05-19T08:43:51;96684.38;;;14.51;97.80
29379;BME280;16362;47.202;15.258;2023-05-19T08:46:20;96686.03;;;14.52;98.56
29379;BME280;16362;47.202;15.258;2023-05-19T08:48:47;96676.31;;;14.51;95.48
29379;BME280;16362;47.202;15.258;2023-05-19T08:54:45;96675.41;;;14.44;96.25
29379;BME280;16362;47.202;15.258;2023-05-19T08:57:12;96675.66;;;14.49;96.17
29379;BME280;16362;47.202;15.258;2023-05-19T08:59:40;96675.50;;;14.51;96.82
29379;BME280;16362;47.202;15.258;2023-05-19T09:02:10;96668.72;;;14.55;96.29
29379;BME280;16362;47.202;15.258;2023-05-19T09:04:39;96675.34;;;14.37;96.20
29379;BME280;16362;47.202;15.258;2023-05-19T09:07:07;96675.16;;;14.39;97.44
29379;BME280;16362;47.202;15.258;2023-05-19T09:09:34;96678.94;;;14.29;96.94
29379;BME280;16362;47.202;15.258;2023-05-19T09:12:01;96680.63;;;14.30;94.83
29379;BME280;16362;47.202;15.258;2023-05-19T09:14:29;96677.38;;;14.20;95.55
29379;BME280;16362;47.202;15.258;2023-05-19T09:16:56;96688.97;;;14.21;96.68
29379;BME280;16362;47.202;15.258;2023-05-19T09:19:27;96688.13;;;14.05;96.51
29379;BME280;16362;47.202;15.258;2023-05-19T09:22:01;96686.47;;;13.89;98.75
29379;BME280;16362;47.202;15.258;2023-05-19T09:24:32;96691.28;;;13.64;98.71
29379;BME280;16362;47.202;15.258;2023-05-19T09:26:59;96695.91;;;13.70;100.00
29379;BME280;16362;47.202;15.258;2023-05-19T09:29:27;96691.31;;;13.79;100.00
29379;BME280;16362;47.202;15.258;2023-05-19T09:31:54;96699.25;;;13.72;99.40
29379;BME280;16362;47.202;15.258;2023-05-19T09:34:26;96694.13;;;13.62;99.46
29379;BME280;16362;47.202;15.258;2023-05-19T09:36:53;96699.41;;;13.56;100.00
29379;BME280;16362;47.202;15.258;2023-05-19T09:39:21;96693.47;;;13.45;100.00
29379;BME280;16362;47.202;15.258;2023-05-19T09:41:55;96696.63;;;13.49;100.00
29379;BME280;16362;47.202;15.258;2023-05-19T09:44:25;96690.00;;;13.60;100.00
29379;BME280;16362;47.202;15.258;2023-05-19T09:46:56;96693.13;;;13.63;100.00
29379;BME280;16362;47.202;15.258;2023-05-19T09:49:28;96690.00;;;13.75;100.00
29379;BME280;16362;47.202;15.258;2023-05-19T09:51:56;96689.63;;;13.93;99.51
29379;BME280;16362;47.202;15.258;2023-05-19T09:54:24;96688.97;;;13.91;98.03
29379;BME280;16362;47.202;15.258;2023-05-19T09:56:56;96679.81;;;14.00;100.00
29379;BME280;16362;47.202;15.258;2023-05-19T09:59:24;96678.41;;;14.19;98.97
29379;BME280;16362;47.202;15.258;2023-05-19T10:01:55;96678.09;;;14.44;96.25
29379;BME280;16362;47.202;15.258;2023-05-19T10:04:24;96664.91;;;14.49;94.76
29379;BME280;16362;47.202;15.258;2023-05-19T10:06:53;96658.59;;;14.72;95.87
29379;BME280;16362;47.202;15.258;2023-05-19T10:09:25;96670.34;;;14.92;93.99
29379;BME280;16362;47.202;15.258;2023-05-19T10:11:53;96669.66;;;15.05;91.84
29379;BME280;16362;47.202;15.258;2023-05-19T10:14:24;96668.50;;;15.14;89.94
29379;BME280;16362;47.202;15.258;2023-05-19T10:16:53;96672.41;;;14.90;91.10
29379;BME280;16362;47.202;15.258;2023-05-19T10:19:22;96666.38;;;15.10;95.42
29379;BME280;16362;47.202;15.258;2023-05-19T10:21:50;96668.69;;;15.13;91.74
29379;BME280;16362;47.202;15.258;2023-05-19T10:24:18;96667.38;;;15.02;91.96
29379;BME280;16362;47.202;15.258;2023-05-19T10:26:58;96666.16;;;14.83;91.67
29379;BME280;16362;47.202;15.258;2023-05-19T10:29:48;96660.25;;;14.73;92.70
29379;BME280;16362;47.202;15.258;2023-05-19T10:32:21;96658.88;;;14.62;93.88
29379;BME280;16362;47.202;15.258;2023-05-19T10:43:04;96660.25;;;14.73;92.94
29379;BME280;16362;47.202;15.258;2023-05-19T10:45:46;96657.19;;;14.76;93.80
29379;BME280;16362;47.202;15.258;2023-05-19T10:48:14;96658.44;;;15.02;94.70
29379;BME280;16362;47.202;15.258;2023-05-19T10:50:43;96662.34;;;15.21;94.17
29379;BME280;16362;47.202;15.258;2023-05-19T10:53:15;96658.16;;;15.11;91.81
29379;BME280;16362;47.202;15.258;2023-05-19T10:55:52;96668.00;;;15.04;95.33
29379;BME280;16362;47.202;15.258;2023-05-19T11:01:14;96670.41;;;14.99;94.63
29379;BME280;16362;47.202;15.258;2023-05-19T11:03:47;96661.34;;;15.00;91.65
29379;BME280;16362;47.202;15.258;2023-05-19T11:08:44;96663.66;;;15.31;92.00
29379;BME280;16362;47.202;15.258;2023-05-19T11:11:14;96665.59;;;15.38;93.09
29379;BME280;16362;47.202;15.258;2023-05-19T11:13:52;96665.81;;;15.14;91.45
29379;BME280;16362;47.202;15.258;2023-05-19T11:16:30;96662.69;;;15.11;90.86
29379;BME280;16362;47.202;15.258;2023-05-19T11:18:58;96668.69;;;15.13;91.84
29379;BME280;16362;47.202;15.258;2023-05-19T11:21:41;96672.31;;;15.27;92.00
29379;BME280;16362;47.202;15.258;2023-05-19T11:24:09;96673.34;;;15.26;92.12
29379;BME280;16362;47.202;15.258;2023-05-19T11:26:40;96658.44;;;15.23;91.31
29379;BME280;16362;47.202;15.258;2023-05-19T11:29:10;96658.50;;;15.30;92.42
29379;BME280;16362;47.202;15.258;2023-05-19T11:31:37;96649.59;;;15.29;91.64
29379;BME280;16362;47.202;15.258;2023-05-19T11:34:05;96649.06;;;15.41;92.39
29379;BME280;16362;47.202;15.258;2023-05-19T11:36:35;96647.69;;;15.52;92.17
29379;BME280;16362;47.202;15.258;2023-05-19T11:39:02;96652.25;;;15.51;90.01
29379;BME280;16362;47.202;15.258;2023-05-19T11:41:29;96655.28;;;15.41;91.63
29379;BME280;16362;47.202;15.258;2023-05-19T11:43:56;96655.13;;;15.21;90.86
29379;BME280;16362;47.202;15.258;2023-05-19T11:46:23;96654.22;;;15.14;92.26
29379;BME280;16362;47.202;15.258;2023-05-19T11:48:52;96650.56;;;15.22;92.84
29379;BME280;16362;47.202;15.258;2023-05-19T11:51:20;96648.59;;;15.30;90.35
29379;BME280;16362;47.202;15.258;2023-05-19T11:53:48;96645.94;;;15.37;94.92
29379;BME280;16362;47.202;15.258;2023-05-19T11:56:15;96646.72;;;15.31;92.23
29379;BME280;16362;47.202;15.258;2023-05-19T11:58:42;96650.47;;;15.37;91.75
29379;BME280;16362;47.202;15.258;2023-05-19T12:01:09;96648.34;;;15.25;90.55
29379;BME280;16362;47.202;15.258;2023-05-19T12:03:36;96653.38;;;15.35;90.30
29379;BME280;16362;47.202;15.258;2023-05-19T12:06:05;96650.38;;;15.52;88.32
29379;BME280;16362;47.202;15.258;2023-05-19T12:08:34;96643.38;;;15.57;90.16
29379;BME280;16362;47.202;15.258;2023-05-19T12:11:01;96638.31;;;15.76;89.21
29379;BME280;16362;47.202;15.258;2023-05-19T12:13:28;96633.75;;;16.11;88.37
29379;BME280;16362;47.202;15.258;2023-05-19T12:15:58;96629.50;;;16.37;85.72
29379;BME280;16362;47.202;15.258;2023-05-19T12:18:29;96623.81;;;16.74;86.40
29379;BME280;16362;47.202;15.258;2023-05-19T12:20:59;96629.16;;;16.54;82.10
29379;BME280;16362;47.202;15.258;2023-05-19T12:23:26;96612.81;;;16.62;82.34
29379;BME280;16362;47.202;15.258;2023-05-19T12:25:57;96615.50;;;16.62;84.53
29379;BME280;16362;47.202;15.258;2023-05-19T12:28:24;96613.44;;;16.77;83.19
29379;BME280;16362;47.202;15.258;2023-05-19T12:30:52;96615.50;;;16.62;80.08
29379;BME280;16362;47.202;15.258;2023-05-19T12:33:19;96611.78;;;16.63;82.94
29379;BME280;16362;47.202;15.258;2023-05-19T12:35:48;96618.00;;;16.70;80.71
29379;BME280;16362;47.202;15.258;2023-05-19T12:38:15;96613.03;;;16.74;85.34
29379;BME280;16362;47.202;15.258;2023-05-19T12:40:43;96618.00;;;16.63;81.04
29379;BME280;16362;47.202;15.258;2023-05-19T12:43:23;96613.66;;;16.69;81.89
29379;BME280;16362;47.202;15.258;2023-05-19T12:45:50;96613.22;;;16.52;86.58
29379;BME280;16362;47.202;15.258;2023-05-19T12:48:20;96617.50;;;16.40;82.55
29379;BME280;16362;47.202;15.258;2023-05-19T12:50:51;96618.72;;;16.37;80.78
29379;BME280;16362;47.202;15.258;2023-05-19T12:53:19;96613.09;;;16.19;83.17
29379;BME280;16362;47.202;15.258;2023-05-19T12:55:46;96612.84;;;16.07;84.84
29379;BME280;16362;47.202;15.258;2023-05-19T12:58:14;96615.03;;;15.83;86.97
29379;BME280;16362;47.202;15.258;2023-05-19T13:00:43;96611.59;;;16.03;84.79
29379;BME280;16362;47.202;15.258;2023-05-19T13:03:17;96606.34;;;15.88;83.33
29379;BME280;16362;47.202;15.258;2023-05-19T13:05:46;96616.03;;;15.82;85.58
29379;BME280;16362;47.202;15.258;2023-05-19T13:08:21;96613.97;;;15.84;83.08
29379;BME280;16362;47.202;15.258;2023-05-19T13:10:49;96603.50;;;16.03;82.44
29379;BME280;16362;47.202;15.258;2023-05-19T13:13:16;96605.22;;;16.17;86.92
29379;BME280;16362;47.202;15.258;2023-05-19T13:15:44;96601.31;;;16.33;84.09
29379;BME280;16362;47.202;15.258;2023-05-19T13:18:14;96609.78;;;16.23;82.24
29379;BME280;16362;47.202;15.258;2023-05-19T13:20:42;96607.50;;;16.20;82.96
29379;BME280;16362;47.202;15.258;2023-05-19T13:23:10;96597.19;;;16.30;83.35
29379;BME280;16362;47.202;15.258;2023-05-19T13:25:37;96604.25;;;16.38;85.38